Time;durP1;ratioP1;P1;durP2;ratioP2;P2;SDS_P1;SDS_P2;PMS_P1;PMS_P2;Temp;Humidity;BMP_temperature;BMP_pressure;BME280_temperature;BME280_humidity;BME280_pressure;Samples;Min_cycle;Max_cycle;Signal;HPM_P1;HPM_P2
2020/12/14 00:00:31;;;;;;;11.27;8.07;;;;;;;3.99;82.48;98484.84;6086264;23;20194;-91
2020/12/14 00:02:59;;;;;;;9.68;6.88;;;;;;;3.90;82.38;98487.97;6094477;23;20215;-90
2020/12/14 00:05:26;;;;;;;11.25;6.13;;;;;;;3.77;82.97;98481.53;6058829;23;20180;-90
2020/12/14 00:07:56;;;;;;;11.70;5.35;;;;;;;3.70;83.10;98477.47;6100628;23;20160;-91
2020/12/14 00:10:22;;;;;;;7.72;5.78;;;;;;;3.68;83.22;98479.34;6094797;23;20309;-91
2020/12/14 00:12:54;;;;;;;8.18;5.75;;;;;;;3.62;83.44;98465.47;6094187;23;20211;-91
2020/12/14 00:15:27;;;;;;;9.85;5.90;;;;;;;3.48;84.09;98460.81;6093871;23;20874;-91
2020/12/14 00:17:56;;;;;;;5.70;4.78;;;;;;;3.49;84.10;98451.06;6097558;23;20210;-90
2020/12/14 00:20:26;;;;;;;7.25;5.07;;;;;;;3.42;84.33;98444.31;6093192;23;20147;-92
2020/12/14 00:23:58;;;;;;;9.95;6.18;;;;;;;3.42;84.72;98449.63;6100775;23;20231;-94
2020/12/14 00:34:38;;;;;;;9.50;4.90;;;;;;;3.59;84.42;98490.41;6106413;23;20217;-94
2020/12/14 00:37:07;;;;;;;9.27;4.85;;;;;;;3.67;84.53;98498.84;6095292;23;20234;-92
2020/12/14 00:39:34;;;;;;;9.30;6.03;;;;;;;3.77;84.20;98507.25;6089186;23;20202;-90
2020/12/14 00:42:02;;;;;;;6.05;5.20;;;;;;;3.77;84.17;98505.47;6073391;23;20226;-91
2020/12/14 00:44:28;;;;;;;6.93;5.10;;;;;;;3.84;84.09;98506.91;6096968;23;20198;-90
2020/12/14 00:46:55;;;;;;;6.40;5.15;;;;;;;3.91;83.83;98486.19;6074791;23;20180;-91
2020/12/14 00:49:21;;;;;;;5.25;4.75;;;;;;;4.31;81.95;98478.78;6066886;23;20281;-92
2020/12/14 00:51:47;;;;;;;12.20;6.30;;;;;;;4.34;80.92;98486.63;6064585;23;20219;-89
2020/12/14 00:54:14;;;;;;;8.25;6.22;;;;;;;4.11;81.50;98489.56;6045902;23;20212;-90
2020/12/14 00:56:41;;;;;;;10.68;4.85;;;;;;;3.92;81.92;98494.06;6078294;23;20218;-89
2020/12/14 00:59:08;;;;;;;9.63;6.47;;;;;;;3.83;82.57;98494.53;6106786;23;20210;-89
2020/12/14 01:01:34;;;;;;;14.20;9.00;;;;;;;3.72;82.79;98502.16;6078352;23;20724;-89
2020/12/14 01:04:01;;;;;;;9.10;5.85;;;;;;;3.65;82.97;98491.94;6073373;23;20543;-89
2020/12/14 01:06:27;;;;;;;8.57;5.50;;;;;;;3.55;83.26;98487.97;6073541;23;20203;-89
2020/12/14 01:08:54;;;;;;;6.90;5.20;;;;;;;3.46;83.53;98483.94;6079348;23;20211;-88
2020/12/14 01:11:27;;;;;;;9.20;5.68;;;;;;;3.34;83.48;98484.53;6076136;23;20187;-88
2020/12/14 01:13:54;;;;;;;6.30;5.03;;;;;;;3.24;83.95;98488.56;6078718;23;20515;-89
2020/12/14 01:16:21;;;;;;;6.35;5.22;;;;;;;3.18;83.79;98487.97;6075008;23;20270;-90
2020/12/14 01:18:47;;;;;;;7.20;5.07;;;;;;;3.13;84.01;98485.53;6071814;23;20211;-90
2020/12/14 01:21:13;;;;;;;6.50;4.80;;;;;;;3.09;84.00;98493.72;6072770;23;20213;-89
2020/12/14 01:23:40;;;;;;;6.78;4.93;;;;;;;3.06;84.12;98496.50;6070311;23;20242;-89
2020/12/14 01:26:06;;;;;;;6.95;4.90;;;;;;;3.03;84.18;98500.16;6073065;23;20172;-89
2020/12/14 01:28:32;;;;;;;8.52;4.95;;;;;;;3.01;84.61;98490.56;6070370;23;20213;-89
2020/12/14 01:30:58;;;;;;;7.85;5.10;;;;;;;2.99;84.56;98497.72;6095105;23;20211;-89
2020/12/14 01:33:24;;;;;;;9.65;5.20;;;;;;;2.95;84.86;98494.34;6068892;23;20211;-89
2020/12/14 01:35:51;;;;;;;7.20;5.45;;;;;;;2.95;84.90;98497.00;6070895;23;20207;-89
2020/12/14 01:38:18;;;;;;;11.25;5.28;;;;;;;2.93;84.88;98504.19;6067754;23;20551;-89
2020/12/14 01:40:44;;;;;;;5.32;4.45;;;;;;;3.10;84.32;98504.28;6069867;23;20179;-90
2020/12/14 01:43:11;;;;;;;6.82;5.10;;;;;;;3.10;83.82;98498.09;6064856;23;20212;-89
2020/12/14 01:45:37;;;;;;;6.15;5.35;;;;;;;2.93;84.55;98498.88;6053129;23;20239;-89
2020/12/14 01:48:07;;;;;;;5.80;4.70;;;;;;;2.86;84.57;98491.25;6046735;23;20228;-89
2020/12/14 01:50:35;;;;;;;8.80;5.13;;;;;;;2.76;84.88;98480.16;6070252;23;20203;-91
2020/12/14 01:53:03;;;;;;;8.20;4.90;;;;;;;2.73;84.96;98475.00;6074018;23;20195;-89
2020/12/14 01:55:37;;;;;;;5.57;4.35;;;;;;;2.72;85.08;98467.13;6067186;23;20299;-89
2020/12/14 01:58:03;;;;;;;6.10;4.60;;;;;;;2.68;85.15;98476.13;6089528;23;20230;-90
2020/12/14 02:00:30;;;;;;;5.55;4.70;;;;;;;2.64;85.36;98475.41;6071998;23;20207;-89
2020/12/14 02:02:56;;;;;;;10.48;5.28;;;;;;;2.65;85.57;98471.81;6074386;23;20211;-91
2020/12/14 02:05:22;;;;;;;11.05;5.30;;;;;;;2.64;85.36;98475.41;6071281;23;20242;-91
2020/12/14 02:07:48;;;;;;;7.10;5.20;;;;;;;2.63;85.92;98475.50;6071631;23;20610;-90
2020/12/14 02:10:15;;;;;;;5.30;4.80;;;;;;;2.72;85.75;98478.59;6094723;23;20289;-91
2020/12/14 02:12:42;;;;;;;5.32;4.82;;;;;;;2.74;85.20;98481.16;6081861;23;20223;-95
2020/12/14 02:15:09;;;;;;;7.47;4.80;;;;;;;2.78;85.33;98474.81;5996594;23;20260;-88
2020/12/14 02:17:36;;;;;;;7.88;6.10;;;;;;;2.83;84.88;98468.34;6047071;23;20199;-89
2020/12/14 02:20:04;;;;;;;5.35;4.43;;;;;;;2.97;85.28;98479.19;6072833;23;20557;-91
2020/12/14 02:22:31;;;;;;;5.75;5.13;;;;;;;3.04;84.95;98467.38;6070124;23;20660;-89
2020/12/14 02:25:03;;;;;;;6.47;4.25;;;;;;;3.08;84.89;98460.97;6070147;23;20211;-89
2020/12/14 02:27:31;;;;;;;15.07;10.02;;;;;;;3.34;83.53;98457.13;6073250;23;20231;-89
2020/12/14 02:29:58;;;;;;;4.95;4.35;;;;;;;3.34;82.53;98447.31;6098848;23;20171;-88
2020/12/14 02:32:26;;;;;;;4.85;4.35;;;;;;;3.20;83.14;98452.44;6081568;23;20183;-87
2020/12/14 02:34:56;;;;;;;7.30;4.68;;;;;;;3.37;82.66;98457.81;6077313;23;20191;-88
2020/12/14 02:37:28;;;;;;;6.25;4.10;;;;;;;3.32;82.80;98454.53;6070002;23;20267;-88
2020/12/14 02:39:55;;;;;;;5.22;3.97;;;;;;;3.37;82.54;98452.50;6065566;23;20212;-88
2020/12/14 02:42:23;;;;;;;6.72;3.35;;;;;;;3.39;82.09;98458.59;6065334;23;20278;-88
2020/12/14 02:44:50;;;;;;;4.28;3.85;;;;;;;3.46;82.01;98460.03;6069205;23;20215;-89
2020/12/14 02:47:18;;;;;;;4.75;3.80;;;;;;;3.50;81.68;98453.66;6091578;23;20238;-89
2020/12/14 02:49:45;;;;;;;5.50;3.90;;;;;;;3.60;81.29;98448.75;6069188;23;20625;-89
2020/12/14 02:52:13;;;;;;;4.45;4.05;;;;;;;3.67;81.12;98442.19;6082865;23;20212;-89
2020/12/14 02:54:41;;;;;;;6.15;4.50;;;;;;;3.63;80.67;98438.81;6059177;23;20207;-89
2020/12/14 02:57:07;;;;;;;7.63;4.75;;;;;;;3.65;80.52;98436.94;6070666;23;20214;-89
2020/12/14 02:59:34;;;;;;;5.97;4.00;;;;;;;3.76;80.37;98424.00;6069432;23;20203;-88
2020/12/14 03:02:03;;;;;;;5.20;3.55;;;;;;;3.84;80.20;98416.50;6099429;23;20203;-89
2020/12/14 03:04:30;;;;;;;6.22;3.97;;;;;;;3.80;79.77;98411.41;6086673;23;20239;-90
2020/12/14 03:06:57;;;;;;;6.00;4.30;;;;;;;3.79;79.85;98423.81;6113987;23;20195;-91
2020/12/14 03:09:23;;;;;;;5.05;4.10;;;;;;;3.82;80.20;98429.00;6088816;23;20246;-92
2020/12/14 03:11:52;;;;;;;6.35;4.70;;;;;;;3.93;80.35;98424.00;6087757;23;20249;-91
2020/12/14 03:14:19;;;;;;;5.55;4.35;;;;;;;4.04;80.00;98429.63;6088783;23;20202;-91
2020/12/14 03:16:50;;;;;;;5.97;4.35;;;;;;;4.03;80.20;98432.38;6088140;23;20167;-90
2020/12/14 03:19:18;;;;;;;4.38;3.85;;;;;;;4.11;80.00;98425.72;6067886;23;20210;-90
2020/12/14 03:21:45;;;;;;;6.65;4.60;;;;;;;4.22;80.07;98433.16;6067625;23;20203;-89
2020/12/14 03:24:12;;;;;;;5.95;3.65;;;;;;;4.56;78.74;98420.66;6091370;23;20533;-89
2020/12/14 03:26:39;;;;;;;8.55;4.03;;;;;;;4.55;77.79;98413.63;6070486;23;20207;-89
2020/12/14 03:29:06;;;;;;;5.10;4.10;;;;;;;4.63;77.54;98416.75;6075978;23;20176;-89
2020/12/14 03:31:33;;;;;;;6.28;4.60;;;;;;;4.50;78.32;98412.16;6071192;23;20207;-89
2020/12/14 03:34:00;;;;;;;5.43;4.30;;;;;;;4.64;77.38;98426.47;6068865;23;20216;-89
2020/12/14 03:36:27;;;;;;;5.50;4.22;;;;;;;4.58;78.03;98431.25;6070160;23;20230;-89
2020/12/14 03:38:54;;;;;;;5.68;4.57;;;;;;;4.56;78.32;98433.97;6082251;23;20231;-89
2020/12/14 03:41:23;;;;;;;5.88;3.90;;;;;;;4.78;78.05;98433.72;6079491;23;20163;-89
2020/12/14 03:43:52;;;;;;;4.50;4.10;;;;;;;4.96;77.46;98433.59;6059378;23;20223;-88
2020/12/14 03:46:18;;;;;;;7.30;3.72;;;;;;;5.19;75.93;98430.53;6117529;23;20191;-91
2020/12/14 03:48:44;;;;;;;6.13;4.90;;;;;;;5.10;75.61;98427.50;6107482;23;20230;-89
2020/12/14 03:51:12;;;;;;;5.13;4.30;;;;;;;5.01;76.65;98436.84;6087039;23;20210;-90
2020/12/14 03:53:42;;;;;;;4.70;4.20;;;;;;;4.98;77.02;98437.03;6108145;23;20259;-89
2020/12/14 03:56:08;;;;;;;5.05;4.55;;;;;;;4.95;77.26;98439.84;6087581;23;20649;-90
2020/12/14 03:58:35;;;;;;;10.85;4.88;;;;;;;4.85;77.36;98437.75;6087004;23;20281;-89
2020/12/14 04:01:01;;;;;;;5.43;4.35;;;;;;;4.92;77.48;98429.38;6079265;23;20238;-90
2020/12/14 04:03:27;;;;;;;4.55;3.88;;;;;;;4.94;77.66;98439.94;6080408;23;20238;-90
2020/12/14 04:05:54;;;;;;;5.00;4.22;;;;;;;4.87;77.31;98422.59;6080981;23;20207;-89
2020/12/14 04:08:20;;;;;;;7.18;4.28;;;;;;;4.94;77.16;98429.28;6084966;23;20175;-91
2020/12/14 04:10:47;;;;;;;4.03;3.38;;;;;;;4.91;77.00;98422.31;6120300;23;20166;-90
2020/12/14 04:13:14;;;;;;;4.57;3.75;;;;;;;4.88;77.23;98418.97;6116512;23;20243;-90
2020/12/14 04:15:40;;;;;;;6.47;4.07;;;;;;;4.88;77.24;98419.81;6117403;23;20255;-91
2020/12/14 04:18:06;;;;;;;4.45;3.90;;;;;;;4.90;77.81;98433.94;6118268;23;20197;-91
2020/12/14 04:20:32;;;;;;;6.18;4.22;;;;;;;4.98;77.60;98426.38;6113269;23;20207;-89
2020/12/14 04:22:59;;;;;;;5.03;4.28;;;;;;;5.02;77.65;98430.59;6064697;23;20190;-89
2020/12/14 04:25:25;;;;;;;5.40;4.15;;;;;;;5.11;77.76;98415.88;6051643;23;20203;-89
2020/12/14 04:27:58;;;;;;;6.47;4.28;;;;;;;5.23;77.50;98412.56;6069709;23;20255;-89
2020/12/14 04:30:25;;;;;;;6.43;4.45;;;;;;;5.24;77.44;98420.47;6053981;23;20331;-89
2020/12/14 04:32:52;;;;;;;6.07;4.15;;;;;;;5.26;77.51;98423.91;6075766;23;20599;-89
2020/12/14 04:35:18;;;;;;;5.20;4.25;;;;;;;5.63;76.07;98418.22;6070853;23;20164;-88
2020/12/14 04:37:45;;;;;;;5.95;4.85;;;;;;;5.72;75.07;98412.34;6048433;23;20168;-88
2020/12/14 04:40:11;;;;;;;9.68;5.05;;;;;;;5.51;75.81;98418.06;6043313;23;20397;-89
2020/12/14 04:42:38;;;;;;;5.82;4.63;;;;;;;5.63;75.48;98418.22;6084517;23;20588;-90
2020/12/14 04:45:04;;;;;;;6.43;4.65;;;;;;;5.62;76.06;98410.31;6070714;23;20270;-88
2020/12/14 04:47:31;;;;;;;7.40;4.93;;;;;;;5.53;76.71;98409.00;6071102;23;20606;-88
2020/12/14 04:49:58;;;;;;;6.03;5.40;;;;;;;5.49;76.60;98411.94;6073458;23;20384;-88
2020/12/14 04:52:26;;;;;;;8.85;6.60;;;;;;;5.40;77.17;98412.47;6045675;23;20210;-89
2020/12/14 04:54:53;;;;;;;7.90;5.65;;;;;;;5.57;76.40;98401.72;6058509;23;20212;-89
2020/12/14 04:57:22;;;;;;;11.27;7.97;;;;;;;5.48;76.96;98408.44;6056172;23;20437;-88
2020/12/14 04:59:51;;;;;;;8.13;6.95;;;;;;;5.42;77.32;98407.91;6076722;23;20191;-90
2020/12/14 05:02:18;;;;;;;8.95;6.80;;;;;;;5.44;77.65;98409.56;6089079;23;20148;-89
2020/12/14 05:04:44;;;;;;;8.20;7.40;;;;;;;5.57;77.20;98410.56;6093462;23;20176;-91
2020/12/14 05:07:12;;;;;;;11.20;7.88;;;;;;;5.57;77.57;98410.56;6079496;23;20271;-90
2020/12/14 05:09:40;;;;;;;10.30;7.13;;;;;;;5.56;77.44;98406.19;6107464;23;20203;-91
2020/12/14 05:12:18;;;;;;;8.20;6.63;;;;;;;5.67;77.27;98413.56;6083159;23;20227;-90
2020/12/14 05:14:44;;;;;;;12.77;8.77;;;;;;;5.74;77.17;98416.66;6058830;23;20218;-87
2020/12/14 05:17:23;;;;;;;12.43;10.30;;;;;;;6.03;75.62;98426.53;6114434;23;20175;-92
2020/12/14 05:19:51;;;;;;;13.27;11.60;;;;;;;5.84;76.14;98419.69;6051114;23;20246;-89
2020/12/14 05:22:18;;;;;;;14.95;11.27;;;;;;;5.73;77.04;98420.28;6057257;23;20212;-89
2020/12/14 05:24:51;;;;;;;12.68;10.07;;;;;;;5.75;77.17;98420.19;6070071;23;20238;-88
2020/12/14 05:27:29;;;;;;;28.52;17.63;;;;;;;5.72;77.27;98410.56;6095672;23;20211;-89
2020/12/14 05:29:56;;;;;;;29.55;17.50;;;;;;;5.81;76.86;98419.00;6078829;23;20279;-90
2020/12/14 05:32:22;;;;;;;27.08;14.10;;;;;;;5.97;76.69;98419.84;6080725;23;20206;-89
2020/12/14 05:34:49;;;;;;;16.13;11.68;;;;;;;5.90;76.48;98422.00;6082477;23;20218;-88
2020/12/14 05:37:16;;;;;;;13.85;9.68;;;;;;;6.01;76.20;98424.91;6098899;23;20207;-88
2020/12/14 05:39:44;;;;;;;14.75;10.30;;;;;;;5.96;76.53;98421.63;6077002;23;20211;-88
2020/12/14 05:42:14;;;;;;;16.50;10.10;;;;;;;5.98;76.77;98425.94;6093765;23;20199;-89
2020/12/14 05:44:42;;;;;;;19.27;11.65;;;;;;;5.96;76.49;98412.78;6120010;23;20219;-91
2020/12/14 05:47:21;;;;;;;16.95;12.23;;;;;;;5.89;76.95;98412.28;6100392;23;20180;-91
2020/12/14 05:49:49;;;;;;;11.80;9.77;;;;;;;5.87;77.07;98415.97;6121476;23;20199;-89
2020/12/14 05:52:19;;;;;;;11.45;9.43;;;;;;;6.07;76.88;98424.53;6119776;23;20258;-90
2020/12/14 05:54:58;;;;;;;10.32;6.93;;;;;;;6.27;75.08;98424.22;6096013;23;20211;-91
2020/12/14 05:57:36;;;;;;;9.40;7.80;;;;;;;6.22;75.84;98420.97;6093157;23;20656;-89
2020/12/14 06:00:07;;;;;;;9.32;7.60;;;;;;;6.35;75.21;98421.94;6067589;23;20218;-88
2020/12/14 06:02:34;;;;;;;12.85;8.50;;;;;;;6.14;76.17;98423.22;6071925;23;20203;-89
2020/12/14 06:05:04;;;;;;;16.55;10.35;;;;;;;6.07;76.55;98416.53;6076099;23;20167;-89
2020/12/14 06:07:32;;;;;;;13.45;9.40;;;;;;;6.03;77.10;98420.31;6070993;23;20521;-88
2020/12/14 06:10:05;;;;;;;12.43;9.23;;;;;;;6.05;77.37;98421.13;6094276;23;20202;-89
2020/12/14 06:12:32;;;;;;;13.32;7.10;;;;;;;6.15;76.96;98412.47;5956843;23;20217;-88
2020/12/14 06:15:00;;;;;;;8.48;6.40;;;;;;;6.05;77.19;98408.63;6073238;23;20242;-89
2020/12/14 06:17:27;;;;;;;10.00;6.93;;;;;;;6.09;77.41;98404.84;6093580;23;20171;-88
2020/12/14 06:20:02;;;;;;;8.15;6.30;;;;;;;6.18;77.26;98411.44;6072757;23;20170;-88
2020/12/14 06:22:30;;;;;;;6.90;5.20;;;;;;;6.12;77.05;98414.47;6072744;23;20203;-89
2020/12/14 06:24:59;;;;;;;7.15;5.95;;;;;;;6.13;77.07;98419.69;6096167;23;20254;-89
2020/12/14 06:27:27;;;;;;;7.25;6.20;;;;;;;6.12;77.17;98419.81;6073526;23;20286;-89
2020/12/14 06:29:54;;;;;;;7.10;5.30;;;;;;;6.23;76.96;98415.53;6073403;23;20839;-89
2020/12/14 06:32:38;;;;;;;6.95;5.95;;;;;;;6.32;76.51;98423.00;6076238;23;20198;-90
2020/12/14 06:35:06;;;;;;;12.85;6.18;;;;;;;6.17;77.06;98423.91;6082036;23;20659;-89
2020/12/14 06:37:48;;;;;;;6.75;5.55;;;;;;;6.13;77.62;98416.19;6076804;23;20683;-90
2020/12/14 06:40:15;;;;;;;7.05;5.30;;;;;;;6.10;77.94;98424.34;6073213;23;20571;-89
2020/12/14 06:42:42;;;;;;;11.15;10.13;;;;;;;6.23;77.82;98428.00;6096138;23;20555;-89
2020/12/14 06:45:21;;;;;;;9.18;7.30;;;;;;;6.27;77.60;98429.56;6077156;23;20211;-91
2020/12/14 06:47:51;;;;;;;7.70;6.03;;;;;;;6.40;77.09;98425.22;6057506;23;20596;-90
2020/12/14 06:50:32;;;;;;;8.63;5.93;;;;;;;6.48;77.43;98428.28;6070993;23;20164;-89
2020/12/14 06:53:00;;;;;;;6.50;5.90;;;;;;;6.43;77.10;98425.88;6073405;23;20204;-91
2020/12/14 06:55:44;;;;;;;12.02;6.82;;;;;;;6.56;76.87;98434.03;6065850;23;20207;-90
2020/12/14 06:58:29;;;;;;;9.23;7.32;;;;;;;6.50;76.91;98437.91;6065897;23;20294;-89
2020/12/14 07:00:56;;;;;;;9.00;6.90;;;;;;;6.48;77.10;98438.94;6086528;23;20279;-89
2020/12/14 07:03:36;;;;;;;7.82;5.82;;;;;;;6.53;76.91;98436.88;6097204;23;20290;-89
2020/12/14 07:06:04;;;;;;;6.05;5.43;;;;;;;6.52;76.54;98438.69;6070853;23;20254;-90
2020/12/14 07:08:39;;;;;;;5.20;4.70;;;;;;;6.49;76.45;98440.66;6068203;23;20251;-90
2020/12/14 07:11:25;;;;;;;5.97;5.13;;;;;;;6.57;76.64;98446.44;6047426;23;20563;-89
2020/12/14 07:13:53;;;;;;;10.70;5.65;;;;;;;6.60;76.67;98444.44;6071005;23;20583;-90
2020/12/14 07:16:30;;;;;;;6.25;4.90;;;;;;;6.69;76.36;98453.69;6066878;23;20204;-89
2020/12/14 07:18:56;;;;;;;7.47;6.07;;;;;;;7.16;74.27;98459.63;6066150;23;20215;-89
2020/12/14 07:21:23;;;;;;;7.93;5.90;;;;;;;7.12;74.39;98458.09;6052659;23;20207;-89
2020/12/14 07:23:51;;;;;;;7.63;6.40;;;;;;;7.07;74.64;98468.25;6073321;23;20222;-89
2020/12/14 07:26:17;;;;;;;9.02;6.15;;;;;;;6.90;75.43;98461.25;6070560;23;20168;-90
2020/12/14 07:28:47;;;;;;;7.93;6.25;;;;;;;6.81;76.05;98459.16;6062723;23;20163;-92
2020/12/14 07:31:19;;;;;;;11.75;8.50;;;;;;;6.78;76.41;98466.50;6056511;23;20514;-89
2020/12/14 07:34:00;;;;;;;12.38;6.93;;;;;;;6.76;76.53;98457.72;6059367;23;20246;-89
2020/12/14 07:36:51;;;;;;;8.52;5.95;;;;;;;6.73;76.51;98464.09;6044047;23;20247;-89
2020/12/14 07:40:00;;;;;;;10.20;5.82;;;;;;;6.64;76.54;98458.47;6039446;23;20235;-89
2020/12/14 07:45:56;;;;;;;11.95;8.02;;;;;;;6.60;76.52;98463.13;6135365;23;20244;-89
2020/12/14 07:48:23;;;;;;;9.82;6.18;;;;;;;6.41;77.41;98478.53;6100264;23;20211;-90
2020/12/14 07:50:49;;;;;;;7.20;6.10;;;;;;;6.27;77.81;98477.63;6118961;23;20214;-90
2020/12/14 07:53:15;;;;;;;7.45;5.68;;;;;;;6.20;77.85;98479.81;6079912;23;20199;-89
2020/12/14 07:55:42;;;;;;;8.15;6.25;;;;;;;6.16;78.17;98475.56;6060015;23;20171;-89
2020/12/14 07:58:10;;;;;;;7.85;5.10;;;;;;;6.09;78.28;98476.88;6114537;23;20207;-90
2020/12/14 08:00:37;;;;;;;7.45;6.32;;;;;;;6.18;78.41;98479.00;6098785;23;20194;-89
2020/12/14 08:03:05;;;;;;;7.68;5.30;;;;;;;6.15;78.47;98481.00;6099294;23;20194;-90
2020/12/14 08:05:32;;;;;;;11.32;6.30;;;;;;;6.12;78.57;98483.84;6123210;23;20202;-91
2020/12/14 08:08:04;;;;;;;7.80;6.30;;;;;;;6.16;78.63;98482.72;6150579;23;20761;-88
2020/12/14 08:13:32;;;;;;;10.52;7.70;;;;;;;6.28;78.10;98490.00;6074442;23;20190;-87
2020/12/14 08:16:03;;;;;;;11.60;7.57;;;;;;;6.29;77.99;98483.72;6074151;23;20210;-87
2020/12/14 08:18:36;;;;;;;10.15;7.35;;;;;;;6.39;77.54;98492.91;6007714;23;20260;-88
2020/12/14 08:21:07;;;;;;;9.98;7.50;;;;;;;6.27;78.22;98493.63;6061754;23;20307;-87
2020/12/14 08:23:36;;;;;;;11.35;7.80;;;;;;;6.26;78.09;98491.91;6066012;23;20220;-87
2020/12/14 08:26:10;;;;;;;11.13;8.35;;;;;;;6.30;77.77;98496.97;6068804;23;20219;-85
2020/12/14 08:28:36;;;;;;;12.52;8.90;;;;;;;6.20;78.32;98489.59;6110931;23;20278;-86
2020/12/14 08:31:06;;;;;;;12.43;8.82;;;;;;;6.29;78.66;98494.41;6113353;23;20289;-85
2020/12/14 08:33:33;;;;;;;11.43;7.15;;;;;;;6.50;77.51;98491.31;6093021;23;20210;-85
2020/12/14 08:36:08;;;;;;;9.25;6.65;;;;;;;6.48;77.89;98492.34;6142074;23;20211;-85
2020/12/14 08:38:35;;;;;;;8.13;6.40;;;;;;;6.49;77.60;98494.94;6092215;23;20202;-86
2020/12/14 08:41:05;;;;;;;9.77;6.47;;;;;;;6.58;77.47;98482.88;6120379;23;20194;-85
2020/12/14 08:43:33;;;;;;;9.20;5.35;;;;;;;6.80;77.04;98493.97;6115916;23;20286;-86
2020/12/14 08:46:09;;;;;;;9.15;6.57;;;;;;;6.94;76.85;98494.00;6094867;23;20202;-85
2020/12/14 08:48:49;;;;;;;9.20;7.28;;;;;;;7.02;76.20;98499.75;6098344;23;20747;-86
2020/12/14 08:51:43;;;;;;;11.57;8.95;;;;;;;7.14;75.71;98494.47;6133073;23;20210;-86
2020/12/14 08:54:14;;;;;;;13.77;9.82;;;;;;;7.22;75.11;98496.69;6126982;23;20214;-86
2020/12/14 08:56:41;;;;;;;7.93;5.78;;;;;;;7.26;74.60;98498.22;6095749;23;20218;-86
2020/12/14 08:59:15;;;;;;;7.38;6.13;;;;;;;7.33;74.62;98497.72;6073219;23;20182;-86
2020/12/14 09:02:04;;;;;;;12.25;5.70;;;;;;;7.36;74.53;98499.34;6120187;23;20211;-86
2020/12/14 09:04:32;;;;;;;6.18;4.90;;;;;;;7.35;74.17;98492.28;6094300;23;20211;-85
2020/12/14 09:06:59;;;;;;;8.82;5.93;;;;;;;7.37;74.24;98498.41;6070682;23;20206;-87
2020/12/14 09:09:34;;;;;;;8.48;5.63;;;;;;;7.43;74.39;98493.53;6095645;23;20214;-85
2020/12/14 09:12:02;;;;;;;8.68;5.47;;;;;;;7.71;73.60;98501.50;6073290;23;20218;-85
2020/12/14 09:14:31;;;;;;;6.60;5.40;;;;;;;7.75;72.89;98495.03;6101715;23;20209;-86
2020/12/14 09:17:01;;;;;;;10.43;5.47;;;;;;;7.81;72.90;98504.47;6074740;23;20274;-86
2020/12/14 09:19:33;;;;;;;6.55;5.70;;;;;;;7.87;72.78;98502.25;6098890;23;20202;-86
2020/12/14 09:22:01;;;;;;;8.13;5.63;;;;;;;8.00;72.57;98505.00;6100604;23;20246;-86
2020/12/14 09:24:34;;;;;;;11.32;6.47;;;;;;;8.06;72.09;98489.41;6097365;23;20664;-86
2020/12/14 09:27:06;;;;;;;9.27;6.65;;;;;;;8.05;71.98;98494.84;6085750;23;20207;-88
2020/12/14 09:29:33;;;;;;;9.18;6.05;;;;;;;7.94;71.94;98497.34;6081462;23;20258;-87
2020/12/14 09:32:00;;;;;;;10.77;6.10;;;;;;;7.96;71.93;98503.47;6102430;23;20195;-87
2020/12/14 09:34:26;;;;;;;7.80;5.82;;;;;;;7.93;71.96;98495.66;6098564;23;20211;-86
2020/12/14 09:36:54;;;;;;;6.60;5.90;;;;;;;8.03;71.89;98494.09;6076764;23;20207;-88
2020/12/14 09:39:22;;;;;;;8.98;6.82;;;;;;;8.08;71.78;98497.31;6108608;23;20214;-87
2020/12/14 09:41:49;;;;;;;8.65;6.63;;;;;;;8.13;71.63;98498.75;6106649;23;20210;-88
2020/12/14 09:44:16;;;;;;;11.88;7.32;;;;;;;8.02;71.75;98500.38;6106576;23;20219;-86
2020/12/14 09:46:43;;;;;;;8.45;6.35;;;;;;;8.02;70.67;98500.38;6101117;23;20180;-86
2020/12/14 09:49:10;;;;;;;10.68;7.70;;;;;;;8.05;70.83;98494.84;6080059;23;20214;-86
2020/12/14 09:51:37;;;;;;;12.70;6.30;;;;;;;8.14;70.51;98489.75;6098099;23;20211;-86
2020/12/14 09:54:04;;;;;;;9.10;7.07;;;;;;;8.14;69.66;98500.47;6098187;23;20675;-87
2020/12/14 09:56:32;;;;;;;7.90;5.78;;;;;;;8.18;68.84;98501.13;6097927;23;20315;-87
2020/12/14 09:59:01;;;;;;;7.35;6.30;;;;;;;8.54;68.25;98504.06;6077379;23;20398;-87
2020/12/14 10:01:31;;;;;;;10.18;7.15;;;;;;;8.73;66.70;98499.16;6100491;23;20241;-86
2020/12/14 10:03:58;;;;;;;6.28;5.45;;;;;;;8.85;66.15;98503.66;6151316;23;20210;-87
2020/12/14 10:06:25;;;;;;;7.30;5.97;;;;;;;9.06;64.21;98500.38;6128856;23;20203;-86
2020/12/14 10:08:52;;;;;;;5.93;4.97;;;;;;;9.31;62.49;98503.06;6110433;23;20252;-89
2020/12/14 10:11:26;;;;;;;5.97;5.00;;;;;;;9.45;62.53;98496.72;6117216;23;20211;-87
2020/12/14 10:13:55;;;;;;;9.50;7.30;;;;;;;9.63;62.53;98498.09;6115373;23;20226;-88
2020/12/14 10:16:21;;;;;;;8.73;5.45;;;;;;;9.82;62.08;98493.97;6109202;23;20220;-87
2020/12/14 10:18:50;;;;;;;10.95;5.30;;;;;;;10.14;59.96;98497.03;6093725;23;20207;-91
2020/12/14 10:21:17;;;;;;;11.80;5.47;;;;;;;10.28;60.08;98494.19;6070001;23;20207;-88
2020/12/14 10:23:45;;;;;;;9.82;5.80;;;;;;;10.44;59.29;98498.28;6118439;23;20214;-89
2020/12/14 10:26:15;;;;;;;10.27;6.20;;;;;;;10.57;58.66;98493.72;6120733;23;20181;-89
2020/12/14 10:28:43;;;;;;;13.98;6.90;;;;;;;10.74;58.90;98489.75;6124949;23;20147;-91
2020/12/14 10:31:20;;;;;;;8.45;6.00;;;;;;;11.02;57.64;98489.31;6167670;23;20213;-90
2020/12/14 10:38:22;;;;;;;13.20;5.75;;;;;;;11.38;55.93;98487.28;6127850;23;20202;-88
2020/12/14 10:45:22;;;;;;;8.00;5.00;;;;;;;11.48;55.16;98474.84;6047405;23;20581;-89
2020/12/14 10:47:55;;;;;;;5.97;4.55;;;;;;;11.45;55.25;98471.53;6030792;23;20247;-88
2020/12/14 10:50:38;;;;;;;10.90;4.90;;;;;;;11.58;55.32;98473.16;6090502;23;20186;-88
2020/12/14 10:53:16;;;;;;;5.05;3.72;;;;;;;11.60;54.96;98464.94;6129210;23;20291;-89
2020/12/14 10:55:57;;;;;;;6.22;2.90;;;;;;;11.60;54.08;98470.31;6026627;23;20210;-90
2020/12/14 10:58:23;;;;;;;5.13;3.70;;;;;;;11.69;53.26;98475.00;6090231;23;20215;-87
2020/12/14 11:00:49;;;;;;;5.10;3.55;;;;;;;11.52;53.61;98479.00;6135694;23;20209;-88
2020/12/14 11:03:24;;;;;;;7.15;3.38;;;;;;;11.48;54.04;98477.53;6100256;23;20195;-88
2020/12/14 11:05:53;;;;;;;6.25;4.20;;;;;;;11.49;54.15;98470.31;6119364;23;20210;-89
2020/12/14 11:08:29;;;;;;;4.63;3.70;;;;;;;11.36;54.27;98470.41;6111095;23;20190;-89
2020/12/14 11:11:09;;;;;;;5.90;3.28;;;;;;;11.45;53.76;98464.31;6112258;23;20170;-89
2020/12/14 11:13:37;;;;;;;3.88;3.38;;;;;;;11.59;53.66;98468.63;6100977;23;20298;-89
2020/12/14 11:16:03;;;;;;;3.80;2.72;;;;;;;11.67;52.92;98471.56;6101931;23;20206;-90
2020/12/14 11:18:30;;;;;;;5.72;3.47;;;;;;;11.56;53.34;98468.84;6105845;23;20261;-89
2020/12/14 11:20:56;;;;;;;3.90;3.35;;;;;;;11.73;53.15;98463.84;6122541;23;20207;-89
2020/12/14 11:23:23;;;;;;;6.93;3.55;;;;;;;12.02;52.77;98458.78;6087887;23;20235;-90
2020/12/14 11:25:49;;;;;;;6.80;3.65;;;;;;;12.14;52.64;98455.94;6081281;23;20529;-89
2020/12/14 11:28:17;;;;;;;5.38;4.80;;;;;;;12.23;52.26;98455.19;6108875;23;20206;-89
2020/12/14 11:30:48;;;;;;;7.60;5.65;;;;;;;12.35;51.84;98443.38;6115658;23;20203;-92
2020/12/14 11:33:22;;;;;;;8.00;5.55;;;;;;;12.40;51.59;98434.91;6090415;23;20265;-93
2020/12/14 11:36:13;;;;;;;12.38;7.57;;;;;;;12.52;51.42;98428.50;6061703;23;20203;-92
2020/12/14 11:38:42;;;;;;;15.93;8.38;;;;;;;12.47;51.39;98425.31;6084682;23;20210;-93
2020/12/14 11:41:13;;;;;;;19.38;8.70;;;;;;;12.48;51.63;98432.41;6112253;23;20167;-92
2020/12/14 11:43:47;;;;;;;13.23;9.15;;;;;;;12.48;51.43;98418.94;6115989;23;20206;-92
2020/12/14 11:46:16;;;;;;;13.10;8.23;;;;;;;12.39;51.05;98422.41;6106599;23;20215;-93
2020/12/14 11:48:43;;;;;;;6.20;5.60;;;;;;;12.88;49.97;98421.66;6101940;23;20207;-93
2020/12/14 11:51:17;;;;;;;7.63;5.35;;;;;;;12.46;50.78;98420.91;6056507;23;20267;-89
2020/12/14 11:53:45;;;;;;;8.90;4.90;;;;;;;12.57;50.78;98417.19;6051603;23;20206;-83
2020/12/14 11:56:12;;;;;;;6.75;3.78;;;;;;;12.83;49.88;98417.63;6136497;23;20214;-84
2020/12/14 12:00:01;;;;;;;2.78;2.22;;;;;;;12.51;49.94;98421.38;6082557;23;20203;-86
2020/12/14 12:02:30;;;;;;;4.32;3.00;;;;;;;12.67;50.70;98422.66;6111020;23;20151;-85
2020/12/14 12:15:29;;;;;;;2.95;2.10;;;;;;;13.12;47.88;98400.66;6198923;23;20205;-93
2020/12/14 12:17:56;;;;;;;4.75;2.63;;;;;;;13.35;47.63;98395.94;6140243;23;20205;-92
2020/12/14 12:20:23;;;;;;;4.07;2.30;;;;;;;13.42;47.99;98387.19;6143238;23;20193;-91
2020/12/14 12:23:15;;;;;;;6.03;2.58;;;;;;;13.54;47.68;98394.19;6174753;23;20161;-92
2020/12/14 12:29:40;;;;;;;6.78;2.60;;;;;;;13.74;47.09;98376.19;6186504;23;20212;-89